M I D A S
Marine Information and Data Acquisition System
Tripno 1499 of the Zeeleeuw from 2008-06-09 06:34:31 to 2008-06-09 14:33:54
Back to CruiseResearch ActivitiesStationsMapUnderway DataData graphs

EquipmentUnitsComment
TimeDGPSUTC
LatitudeDGPSDM.mWGS84
LongitudeDGPSDM.mWGS84
TemperatureSBE03/SBE38deg celciusITS90
ConductivitySBE21S/mITS90
SalinitySBE21 Practical Salinity Units
ChlorophylAChelsea fluorimeterg/lCalibrated in Aceton
Missing or incorrect values are displayed as -999
Sea surface data collected by the RV Zeeleeuw from 2008-06-09 06:34:32 to 2008-06-09 14:45:23
Time Latitude Longitude Temperature Conductivity Salinity ChlorophylA
2008-06-09 06:35:37 51°13.636 2°56.011 17.957 0.342045 2.075102 -1.766697
2008-06-09 06:36:37 51°13.657 2°55.949 16.9781 2.717642 19.61104 2.063949
2008-06-09 06:37:37 51°13.683 2°55.879 16.8851 2.966567 22.041658 0.775459
2008-06-09 06:38:37 51°13.711 2°55.819 16.7358 3.006824 22.417406 1.088875
2008-06-09 06:39:37 51°13.723 2°55.779 16.5002 3.254653 24.591897 3.839975
2008-06-09 06:40:37 51°13.726 2°55.751 16.3786 3.467802 26.517733 6.103539
2008-06-09 06:41:37 51°13.721 2°55.738 16.3321 3.481063 26.677062 6.312483
2008-06-09 06:42:37 51°13.704 2°55.727 16.3146 3.493806 26.816278 6.416955
2008-06-09 06:43:37 51°13.704 2°55.728 16.3287 3.480132 26.705996 6.347307
2008-06-09 06:44:37 51°13.714 2°55.725 16.3192 3.453612 26.476924 6.277659
2008-06-09 06:45:37 51°13.723 2°55.718 16.3032 3.466664 26.60128 6.416955
2008-06-09 06:46:37 51°13.73 2°55.709 16.2968 3.473812 26.667461 6.347307
2008-06-09 06:47:37 51°13.742 2°55.697 16.2948 3.47806 26.708468 6.382131
2008-06-09 06:48:37 51°13.798 2°55.661 16.2891 3.4821 26.745015 6.382131
2008-06-09 06:49:37 51°13.893 2°55.605 16.2924 3.501163 26.910005 6.97414
2008-06-09 06:50:37 51°13.97 2°55.55 16.2809 3.515667 27.032461 6.765196
2008-06-09 06:51:37 51°14.062 2°55.469 16.2617 3.506032 26.960801 6.451779
2008-06-09 06:52:37 51°14.185 2°55.363 16.2356 3.539704 27.264565 6.312483
2008-06-09 06:53:37 51°14.307 2°55.175 16.2267 3.547475 27.341507 6.451779
2008-06-09 06:54:37 51°14.426 2°54.932 16.1825 3.606227 27.857729 7.531325
2008-06-09 06:55:37 51°14.539 2°54.665 16.1997 3.773714 29.327859 8.053686
2008-06-09 06:56:37 51°14.623 2°54.378 16.2369 3.866499 30.101871 6.765196
2008-06-09 06:57:37 51°14.713 2°54.094 16.2424 3.931201 30.642363 5.163289
2008-06-09 06:58:37 51°14.805 2°53.812 16.2392 3.961585 30.90431 4.257864
2008-06-09 06:59:37 51°14.894 2°53.526 16.238 3.962518 30.916837 3.10867
2008-06-09 07:00:37 51°14.986 2°53.239 16.2415 3.995497 31.204883 2.621133
2008-06-09 07:01:37 51°15.06 2°52.941 16.2615 4.002549 31.260513 2.795254
2008-06-09 07:02:37 51°15.077 2°52.625 16.2712 4.004105 31.258733 2.93455
2008-06-09 07:03:37 51°15.056 2°52.308 16.2666 4.001615 31.231346 2.830078
2008-06-09 07:04:37 51°15.042 2°51.989 16.2595 4.004831 31.263135 2.76043
2008-06-09 07:05:37 51°15.033 2°51.669 16.2442 4.008046 31.299407 2.76043
2008-06-09 07:06:37 51°15.025 2°51.348 16.2406 4.01375 31.360575 2.516661
2008-06-09 07:07:37 51°15.004 2°51.029 16.2561 4.017173 31.383328 2.377365
2008-06-09 07:08:37 51°14.983 2°50.708 16.2474 4.026611 31.459734 1.9943
2008-06-09 07:09:37 51°14.967 2°50.386 16.2235 4.035842 31.550439 1.47194
2008-06-09 07:10:37 51°14.957 2°50.064 16.2066 4.039991 31.608546 1.228171
2008-06-09 07:11:37 51°14.94 2°49.74 16.1821 4.044659 31.660909 1.367467
2008-06-09 07:12:37 51°14.915 2°49.419 16.1975 4.047978 31.702843 1.367467
2008-06-09 07:13:37 51°14.884 2°49.098 16.1992 4.056898 31.768393 1.228171
2008-06-09 07:14:37 51°14.863 2°48.774 16.1926 4.065196 31.842158 1.088875
2008-06-09 07:15:37 51°14.84 2°48.451 16.1709 4.070071 31.893225 1.123699
2008-06-09 07:16:37 51°14.813 2°48.127 16.1437 4.068619 31.896852 1.054051
2008-06-09 07:17:37 51°14.796 2°47.8 16.1205 4.067583 31.907382 1.054051
2008-06-09 07:18:37 51°14.769 2°47.475 16.0905 4.068413 31.93689 1.019227
2008-06-09 07:19:37 51°14.746 2°47.149 16.0558 4.069658 31.972046 0.949579
2008-06-09 07:20:37 51°14.722 2°46.823 16.0272 4.069969 32.001046 0.810283
2008-06-09 07:21:37 51°14.699 2°46.497 15.9995 4.069036 32.013907 0.670986
2008-06-09 07:22:37 51°14.678 2°46.172 15.9959 4.068933 32.031438 0.636162
2008-06-09 07:23:37 51°14.662 2°45.847 15.9939 4.071111 32.052541 0.670986
2008-06-09 07:24:37 51°14.652 2°45.519 15.9706 4.076505 32.104532 0.670986
2008-06-09 07:25:37 51°14.636 2°45.189 15.9601 4.080447 32.157691 0.566514
2008-06-09 07:26:37 51°14.584 2°44.874 15.9598 4.080447 32.164977 0.566514
2008-06-09 07:27:37 51°14.472 2°44.598 15.9576 4.08024 32.162491 0.496866
2008-06-09 07:28:37 51°14.36 2°44.319 15.9503 4.081692 32.177248 0.496866
2008-06-09 07:29:37 51°14.253 2°44.034 15.9527 4.085219 32.210917 0.462042
2008-06-09 07:30:37 51°14.136 2°43.759 15.9552 4.091132 32.262927 0.35757
2008-06-09 07:31:37 51°14.017 2°43.486 15.963 4.097667 32.314434 0.287922
2008-06-09 07:32:37 51°13.897 2°43.213 15.9574 4.106277 32.388862 0.253098
2008-06-09 07:33:37 51°13.771 2°42.949 15.9414 4.11582 32.482238 0.218274
2008-06-09 07:34:37 51°13.65 2°42.677 15.9306 4.123808 32.56199 0.078977
2008-06-09 07:35:37 51°13.529 2°42.405 15.9152 4.131278 32.638586 0.113802
2008-06-09 07:36:37 51°13.399 2°42.143 15.9039 4.140096 32.723102 0.044153
2008-06-09 07:37:37 51°13.274 2°41.875 15.881 4.147462 32.803664 0.113802
2008-06-09 07:38:37 51°13.151 2°41.605 15.8708 4.153687 32.872883 0.18345
2008-06-09 07:39:37 51°13.028 2°41.335 15.8472 4.161053 32.950907 0.287922
2008-06-09 07:40:37 51°12.906 2°41.063 15.8232 4.171428 33.064524 0.392394
2008-06-09 07:41:37 51°12.784 2°40.791 15.8096 4.179314 33.148726 0.53169
2008-06-09 07:42:37 51°12.665 2°40.516 15.7883 4.184294 33.203838 0.566514
2008-06-09 07:43:37 51°12.554 2°40.232 15.7525 4.196122 33.332846 0.914755
2008-06-09 07:44:37 51°12.43 2°39.964 15.7217 4.205046 33.435597 1.576412
2008-06-09 07:45:37 51°12.297 2°39.713 15.6631 4.210338 33.514586 2.342541
2008-06-09 07:46:37 51°12.172 2°39.455 15.631 4.208471 33.548139 2.899726
2008-06-09 07:47:37 51°12.053 2°39.186 15.6189 4.205255 33.536236 3.143494
2008-06-09 07:48:37 51°11.927 2°38.925 15.6429 4.203699 33.525161 3.317614
2008-06-09 07:49:37 51°11.795 2°38.674 15.6411 4.200689 33.482324 3.073846
2008-06-09 07:50:37 51°11.664 2°38.424 15.6465 4.197681 33.460405 2.655957
2008-06-09 07:51:37 51°11.535 2°38.172 15.6898 4.198095 33.448095 2.412189
2008-06-09 07:52:37 51°11.406 2°37.92 15.7122 4.19519 33.392384 2.447013
2008-06-09 07:53:37 51°11.277 2°37.665 15.6824 4.195812 33.393758 2.76043
2008-06-09 07:54:37 51°11.149 2°37.406 15.6736 4.196539 33.423124 2.93455
2008-06-09 07:55:37 51°11.023 2°37.145 15.6398 4.199651 33.453601 3.004198
2008-06-09 07:56:37 51°10.901 2°36.877 15.5572 4.210547 33.596675 3.352439
2008-06-09 07:57:37 51°10.772 2°36.619 15.5252 4.217915 33.716434 3.631031
2008-06-09 07:58:37 51°10.629 2°36.383 15.5109 4.220094 33.757733 3.561383
2008-06-09 07:59:37 51°10.482 2°36.152 15.5002 4.220509 33.775549 3.526559
2008-06-09 08:00:37 51°10.326 2°35.934 15.4898 4.220405 33.780972 3.317614
2008-06-09 08:01:37 51°10.163 2°35.733 15.4748 4.219991 33.789969 3.143494
2008-06-09 08:02:37 51°9.983 2°35.567 15.4816 4.220717 33.804242 2.969374
2008-06-09 08:03:37 51°9.804 2°35.397 15.5706 4.222585 33.811768 2.725606
2008-06-09 08:04:37 51°9.63 2°35.21 15.6495 4.219574 33.686288 2.516661
2008-06-09 08:05:37 51°9.446 2°35.047 15.631 4.216979 33.628826 2.272893
2008-06-09 08:06:37 51°9.263 2°34.877 15.6047 4.217187 33.646076 2.168421
2008-06-09 08:07:37 51°9.072 2°34.731 15.5758 4.218433 33.681719 1.924652
2008-06-09 08:08:37 51°8.878 2°34.583 15.5808 4.221338 33.726616 2.029124
2008-06-09 08:09:37 51°8.695 2°34.44 15.6015 4.222583 33.728591 2.063949
2008-06-09 08:10:37 51°8.536 2°34.308 15.6164 4.221338 33.701322 2.203245
2008-06-09 08:11:37 51°8.425 2°34.234 15.6357 4.222272 33.696317 2.272893
2008-06-09 08:12:37 51°8.359 2°34.187 15.6479 4.22528 33.707013 2.063949
2008-06-09 08:13:37 51°8.315 2°34.128 15.6543 4.227563 33.721049 2.063949
2008-06-09 08:14:37 51°8.278 2°34.046 15.6621 4.229223 33.729532 1.9943
2008-06-09 08:15:37 51°8.251 2°33.963 15.6562 4.230987 33.737535 1.924652
2008-06-09 08:16:37 51°8.225 2°33.89 15.5941 4.235242 33.79302 2.203245
2008-06-09 08:17:37 51°8.199 2°33.824 15.5485 4.240638 33.892635 2.795254
2008-06-09 08:18:37 51°8.175 2°33.76 15.5327 4.242091 33.936744 3.004198
2008-06-09 08:19:37 51°8.152 2°33.698 15.5214 4.243129 33.95949 3.143494
2008-06-09 08:20:37 51°8.13 2°33.638 15.5159 4.244063 33.974229 3.247966
2008-06-09 08:21:37 51°8.107 2°33.579 15.5172 4.244893 33.985207 3.247966
2008-06-09 08:22:37 51°8.084 2°33.521 15.5187 4.245931 33.993073 3.213142
2008-06-09 08:23:37 51°8.062 2°33.463 15.5233 4.246865 34.000721 3.247966
2008-06-09 08:24:37 51°8.039 2°33.408 15.5239 4.247903 34.007877 3.247966
2008-06-09 08:25:37 51°8.015 2°33.356 15.5229 4.249044 34.016672 3.352439
2008-06-09 08:26:37 51°7.986 2°33.298 15.5232 4.249667 34.022954 3.526559
2008-06-09 08:27:37 51°7.957 2°33.235 15.523 4.250289 34.028527 3.387263
2008-06-09 08:28:37 51°7.928 2°33.17 15.5223 4.250808 34.03317 3.178318
2008-06-09 08:29:37 51°7.899 2°33.106 15.519 4.251431 34.039454 3.073846
2008-06-09 08:30:37 51°7.871 2°33.041 15.5215 4.251638 34.042733 3.213142
2008-06-09 08:31:37 51°7.843 2°32.976 15.5278 4.252261 34.046173 3.28279
2008-06-09 08:32:37 51°7.815 2°32.91 15.5317 4.252987 34.048408 3.352439
2008-06-09 08:33:37 51°7.789 2°32.842 15.5288 4.253506 34.050208 3.178318
2008-06-09 08:34:37 51°7.763 2°32.775 15.5339 4.253506 34.050919 3.352439
2008-06-09 08:35:37 51°7.737 2°32.708 15.5375 4.254128 34.050093 3.317614
2008-06-09 08:36:37 51°7.711 2°32.639 15.5356 4.254336 34.051239 3.28279
2008-06-09 08:37:37 51°7.683 2°32.571 15.5384 4.254232 34.052443 3.28279
2008-06-09 08:38:37 51°7.658 2°32.505 15.5406 4.254751 34.05211 3.247966
2008-06-09 08:39:37 51°7.63 2°32.438 15.5393 4.254543 34.051674 3.247966
2008-06-09 08:40:37 51°7.604 2°32.371 15.5446 4.25444 34.050035 3.352439
2008-06-09 08:41:37 51°7.576 2°32.305 15.5441 4.254647 34.049049 3.491735
2008-06-09 08:42:37 51°7.55 2°32.238 15.5474 4.254647 34.047628 3.352439
2008-06-09 08:43:37 51°7.523 2°32.171 15.5487 4.254543 34.045989 3.247966
2008-06-09 08:44:37 51°7.497 2°32.102 15.55 4.254543 34.044568 3.178318
2008-06-09 08:45:37 51°7.472 2°32.035 15.5501 4.254647 34.044075 3.213142
2008-06-09 08:46:37 51°7.448 2°31.966 15.5491 4.254336 34.042001 3.387263
2008-06-09 08:47:37 51°7.431 2°31.893 15.5523 4.254128 34.040144 3.387263
2008-06-09 08:48:37 51°7.418 2°31.83 15.5562 4.254336 34.038449 3.387263
2008-06-09 08:49:37 51°7.406 2°31.779 15.558 4.254751 34.039321 3.491735
2008-06-09 08:50:37 51°7.394 2°31.736 15.56 4.254855 34.038119 3.526559
2008-06-09 08:51:37 51°7.382 2°31.698 15.5567 4.254751 34.035771 3.631031
2008-06-09 08:52:37 51°7.369 2°31.663 15.55 4.254336 34.037739 3.874799
2008-06-09 08:53:37 51°7.357 2°31.628 15.5492 4.253609 34.034793 4.04892
2008-06-09 08:54:37 51°7.371 2°31.55 15.5537 4.253609 34.033373 3.909623
2008-06-09 08:55:37 51°7.428 2°31.555 15.5853 4.253506 34.030314 3.909623
2008-06-09 08:56:37 51°7.55 2°31.69 15.6306 4.252364 33.98253 3.213142
2008-06-09 08:57:37 51°7.698 2°31.859 15.6615 4.250495 33.929085 2.899726
2008-06-09 08:58:37 51°7.845 2°32.032 15.6721 4.247901 33.881263 2.655957
2008-06-09 08:59:37 51°7.982 2°32.227 15.6336 4.245929 33.873547 2.481837
2008-06-09 09:00:37 51°8.116 2°32.427 15.6361 4.244373 33.88222 2.133597
2008-06-09 09:01:37 51°8.244 2°32.641 15.6515 4.245099 33.882353 2.168421
2008-06-09 09:02:37 51°8.39 2°32.822 15.6743 4.24541 33.867511 2.272893
2008-06-09 09:03:37 51°8.544 2°32.984 15.69 4.24126 33.820657 2.238069
2008-06-09 09:04:37 51°8.7 2°33.145 15.7055 4.238146 33.770448 2.377365
2008-06-09 09:05:37 51°8.856 2°33.311 15.6484 4.23659 33.765706 2.029124
2008-06-09 09:06:37 51°9.007 2°33.485 15.6675 4.234515 33.785839 1.959476
2008-06-09 09:07:37 51°9.164 2°33.645 15.7137 4.232958 33.729154 1.715708
2008-06-09 09:08:37 51°9.321 2°33.807 15.7392 4.230883 33.695973 1.82018
2008-06-09 09:09:37 51°9.478 2°33.97 15.7119 4.229014 33.652099 1.750532
2008-06-09 09:10:37 51°9.632 2°34.139 15.726 4.225798 33.650725 1.855004
2008-06-09 09:11:37 51°9.789 2°34.304 15.7361 4.223412 33.618321 2.029124
2008-06-09 09:12:37 51°9.947 2°34.469 15.7426 4.223308 33.604146 2.272893
2008-06-09 09:13:37 51°10.106 2°34.634 15.709 4.227043 33.635964 2.481837
2008-06-09 09:14:37 51°10.262 2°34.8 15.5926 4.232336 33.734123 2.342541
2008-06-09 09:15:37 51°10.417 2°34.965 15.5263 4.228913 33.792844 2.238069
2008-06-09 09:16:37 51°10.572 2°35.129 15.5185 4.224348 33.794354 2.307717
2008-06-09 09:17:37 51°10.729 2°35.292 15.5237 4.222895 33.786306 2.342541
2008-06-09 09:18:37 51°10.885 2°35.456 15.541 4.222895 33.778546 2.238069
2008-06-09 09:19:37 51°11.042 2°35.619 15.58 4.222791 33.764226 2.307717
2008-06-09 09:20:37 51°11.199 2°35.78 15.6663 4.221338 33.693602 1.889828
2008-06-09 09:21:37 51°11.357 2°35.94 15.6672 4.21729 33.601541 1.82018
2008-06-09 09:22:37 51°11.514 2°36.102 15.6712 4.21065 33.552192 1.715708
2008-06-09 09:23:37 51°11.671 2°36.263 15.6771 4.206811 33.512442 1.715708
2008-06-09 09:24:37 51°11.829 2°36.421 15.661 4.206084 33.505978 1.82018
2008-06-09 09:25:37 51°11.986 2°36.58 15.6694 4.207329 33.519846 2.168421
2008-06-09 09:26:37 51°12.144 2°36.738 15.683 4.208575 33.528838 2.377365
2008-06-09 09:27:37 51°12.31 2°36.876 15.6843 4.214696 33.5638 2.621133
2008-06-09 09:28:37 51°12.489 2°36.977 15.6742 4.219158 33.61747 3.10867
2008-06-09 09:29:37 51°12.678 2°37.029 15.6693 4.21895 33.619815 3.247966
2008-06-09 09:30:37 51°12.869 2°37.065 15.7075 4.217394 33.60456 3.317614
2008-06-09 09:31:37 51°13.059 2°37.101 15.7483 4.219261 33.58559 2.899726
2008-06-09 09:32:37 51°13.253 2°37.131 15.7542 4.218327 33.54595 2.342541
2008-06-09 09:33:37 51°13.443 2°37.022 15.7526 4.216044 33.527753 2.098773
2008-06-09 09:34:37 51°13.575 2°36.76 15.7017 4.215629 33.53241 2.238069
2008-06-09 09:35:37 51°13.529 2°36.425 15.6926 4.213658 33.557356 1.9943
2008-06-09 09:36:37 51°13.406 2°36.126 15.6862 4.213658 33.554568 1.785356
2008-06-09 09:37:37 51°13.266 2°35.848 15.6454 4.212517 33.556263 1.82018
2008-06-09 09:38:37 51°13.126 2°35.571 15.6186 4.213244 33.593447 2.029124
2008-06-09 09:39:37 51°12.986 2°35.3 15.6014 4.21449 33.627628 2.098773
2008-06-09 09:40:37 51°12.841 2°35.043 15.5806 4.21615 33.655744 2.098773
2008-06-09 09:41:37 51°12.698 2°34.779 15.5554 4.216669 33.681421 2.098773
2008-06-09 09:42:37 51°12.556 2°34.514 15.54 4.216462 33.698537 2.133597
2008-06-09 09:43:37 51°12.417 2°34.239 15.5367 4.216254 33.707231 2.203245
2008-06-09 09:44:37 51°12.272 2°33.971 15.5493 4.216254 33.707934 2.203245
2008-06-09 09:45:37 51°12.113 2°33.726 15.574 4.216566 33.693841 2.342541
2008-06-09 09:46:37 51°11.961 2°33.468 15.5968 4.217914 33.686917 2.899726
2008-06-09 09:47:37 51°11.804 2°33.216 15.6046 4.2203 33.692767 3.143494
2008-06-09 09:48:37 51°11.652 2°32.962 15.5985 4.222791 33.712878 2.795254
2008-06-09 09:49:37 51°11.495 2°32.718 15.5911 4.225073 33.733947 2.516661
2008-06-09 09:50:37 51°11.355 2°32.48 15.5787 4.226215 33.753975 2.412189
2008-06-09 09:51:37 51°11.261 2°32.335 15.5729 4.226319 33.764752 2.516661
2008-06-09 09:52:37 51°11.2 2°32.269 15.5771 4.22663 33.771755 2.447013
2008-06-09 09:53:37 51°11.159 2°32.184 15.5834 4.227356 33.772608 2.377365
2008-06-09 09:54:37 51°11.133 2°32.091 15.5901 4.227771 33.769978 2.238069
2008-06-09 09:55:37 51°11.116 2°31.999 15.5897 4.227979 33.769016 2.203245
2008-06-09 09:56:37 51°11.095 2°31.918 15.5912 4.227979 33.767609 2.238069
2008-06-09 09:57:37 51°11.068 2°31.848 15.5859 4.22829 33.771091 2.516661
2008-06-09 09:58:37 51°11.037 2°31.782 15.5869 4.22829 33.773906 2.690782
2008-06-09 09:59:37 51°11.009 2°31.713 15.5933 4.22829 33.773906 2.655957
2008-06-09 10:00:37 51°10.981 2°31.643 15.6064 4.228913 33.771018 2.412189
2008-06-09 10:01:37 51°10.953 2°31.575 15.6128 4.229639 33.769059 2.342541
2008-06-09 10:02:37 51°10.922 2°31.507 15.6028 4.22995 33.769726 2.481837
2008-06-09 10:03:37 51°10.89 2°31.44 15.5991 4.22912 33.77076 2.621133
2008-06-09 10:04:37 51°10.856 2°31.373 15.6066 4.229016 33.767724 2.655957
2008-06-09 10:05:37 51°10.822 2°31.305 15.611 4.229535 33.768133 2.621133
2008-06-09 10:06:37 51°10.788 2°31.236 15.6182 4.230054 33.767839 2.551485
2008-06-09 10:07:37 51°10.754 2°31.169 15.62 4.230676 33.767768 2.690782
2008-06-09 10:08:37 51°10.72 2°31.102 15.6278 4.230987 33.76703 2.690782
2008-06-09 10:09:37 51°10.686 2°31.037 15.6364 4.23161 33.76696 2.586309
2008-06-09 10:10:37 51°10.653 2°30.971 15.6379 4.232336 33.767112 2.551485
2008-06-09 10:11:37 51°10.618 2°30.909 15.6368 4.23244 33.767335 2.516661
2008-06-09 10:12:37 51°10.583 2°30.848 15.6312 4.232129 33.76737 2.621133
2008-06-09 10:13:37 51°10.548 2°30.788 15.6234 4.231714 33.767182 2.830078
2008-06-09 10:14:37 51°10.512 2°30.727 15.6268 4.231299 33.766995 2.795254
2008-06-09 10:15:37 51°10.476 2°30.665 15.6218 4.231299 33.765589 2.830078
2008-06-09 10:16:37 51°10.44 2°30.603 15.6139 4.23078 33.765882 2.864902
2008-06-09 10:17:37 51°10.402 2°30.544 15.5983 4.229846 33.766691 2.969374
2008-06-09 10:18:37 51°10.365 2°30.483 15.5859 4.228705 33.767056 3.10867
2008-06-09 10:19:37 51°10.327 2°30.423 15.5767 4.227875 33.770905 3.247966
2008-06-09 10:20:37 51°10.289 2°30.363 15.571 4.227253 33.773089 3.28279
2008-06-09 10:21:37 51°10.251 2°30.304 15.5634 4.227045 33.775461 3.352439
2008-06-09 10:22:37 51°10.212 2°30.243 15.5652 4.227253 33.782244 3.456911
2008-06-09 10:23:37 51°10.173 2°30.183 15.5664 4.227772 33.784764 3.526559
2008-06-09 10:24:37 51°10.134 2°30.123 15.5658 4.228187 33.78988 3.352439
2008-06-09 10:25:37 51°10.094 2°30.064 15.569 4.228809 33.792622 3.28279
2008-06-09 10:26:37 51°10.054 2°30.004 15.5657 4.229224 33.798443 3.10867
2008-06-09 10:27:37 51°10.013 2°29.943 15.5573 4.229328 33.804304 3.039022
2008-06-09 10:28:37 51°9.979 2°29.876 15.5601 4.229432 33.808756 2.899726
2008-06-09 10:29:37 51°9.95 2°29.806 15.5696 4.229951 33.809865 2.76043
2008-06-09 10:30:37 51°9.927 2°29.734 15.5809 4.230884 33.809041 2.551485
2008-06-09 10:31:37 51°9.909 2°29.661 15.5975 4.231922 33.806327 2.481837
2008-06-09 10:32:37 51°9.894 2°29.598 15.6114 4.232856 33.80269 2.377365
2008-06-09 10:33:37 51°9.878 2°29.544 15.6263 4.2341 33.799018 2.307717
2008-06-09 10:34:37 51°9.861 2°29.496 15.6394 4.235138 33.797721 2.307717
2008-06-09 10:35:37 51°9.844 2°29.453 15.6392 4.235864 33.795759 2.307717
2008-06-09 10:36:37 51°9.827 2°29.412 15.638 4.235553 33.794389 2.272893
2008-06-09 10:37:37 51°9.809 2°29.373 15.6379 4.235449 33.794167 2.412189
2008-06-09 10:38:37 51°9.789 2°29.334 15.6374 4.235242 33.791613 2.481837
2008-06-09 10:39:37 51°9.769 2°29.297 15.6416 4.234411 33.784211 2.621133
2008-06-09 10:40:37 51°9.749 2°29.262 15.6432 4.235241 33.787395 2.795254
2008-06-09 10:41:37 51°9.731 2°29.214 15.644 4.235449 33.788543 3.004198
2008-06-09 10:42:37 51°9.755 2°29.165 15.6714 4.235864 33.787323 2.93455
2008-06-09 10:43:37 51°9.784 2°29.222 15.6791 4.236901 33.777604 2.342541
2008-06-09 10:44:37 51°9.809 2°29.295 15.6796 4.237005 33.77572 2.238069
2008-06-09 10:45:37 51°9.832 2°29.363 15.6836 4.237316 33.774282 2.098773
2008-06-09 10:46:38 51°9.859 2°29.423 15.687 4.238354 33.77791 1.924652
2008-06-09 10:47:37 51°9.887 2°29.466 15.6767 4.238665 33.783491 1.924652
2008-06-09 10:48:37 51°9.917 2°29.51 15.6779 4.238458 33.787259 1.889828
2008-06-09 10:49:37 51°9.947 2°29.559 15.6608 4.238354 33.790548 1.889828
2008-06-09 10:50:37 51°9.976 2°29.609 15.6501 4.237317 33.791839 1.959476
2008-06-09 10:51:37 51°10.007 2°29.659 15.6394 4.236383 33.791245 1.9943
2008-06-09 10:52:37 51°10.037 2°29.711 15.6369 4.235345 33.791835 1.9943
2008-06-09 10:53:37 51°10.067 2°29.761 15.6342 4.234827 33.788615 2.029124
2008-06-09 10:54:37 51°10.097 2°29.812 15.6314 4.234723 33.788393 2.063949
2008-06-09 10:55:37 51°10.127 2°29.863 15.6367 4.233996 33.784025 1.9943
2008-06-09 10:56:37 51°10.158 2°29.914 15.6492 4.234204 33.778846 2.029124
2008-06-09 10:57:37 51°10.189 2°29.964 15.6591 4.23493 33.77689 2.029124
2008-06-09 10:58:37 51°10.219 2°30.014 15.6669 4.235656 33.774935 1.9943
2008-06-09 10:59:37 51°10.248 2°30.066 15.6924 4.23659 33.772023 1.855004
2008-06-09 11:00:37 51°10.278 2°30.116 15.712 4.238561 33.771338 1.855004
2008-06-09 11:01:37 51°10.308 2°30.166 15.731 4.240532 33.769957 1.855004
2008-06-09 11:02:38 51°10.341 2°30.211 15.7458 4.241985 33.769569 1.785356
2008-06-09 11:03:37 51°10.378 2°30.244 15.771 4.243645 33.769628 1.715708
2008-06-09 11:04:37 51°10.416 2°30.279 15.7927 4.246135 33.76797 1.715708
2008-06-09 11:05:37 51°10.448 2°30.325 15.7943 4.246965 33.765554 1.750532
2008-06-09 11:06:37 51°10.477 2°30.376 15.8037 4.247276 33.764823 1.82018
2008-06-09 11:07:37 51°10.506 2°30.427 15.8159 4.247899 33.761266 1.82018
2008-06-09 11:08:37 51°10.534 2°30.479 15.8232 4.248832 33.759776 1.785356
2008-06-09 11:09:37 51°10.563 2°30.529 15.8258 4.249247 33.758571 1.82018
2008-06-09 11:10:37 51°10.592 2°30.579 15.8228 4.249351 33.757397 1.855004
2008-06-09 11:11:37 51°10.617 2°30.634 15.8171 4.248936 33.757204 1.924652
2008-06-09 11:12:37 51°10.627 2°30.704 15.7896 4.247691 33.756626 2.029124
2008-06-09 11:13:37 51°10.63 2°30.778 15.7784 4.245409 33.755918 2.203245
2008-06-09 11:14:37 51°10.632 2°30.853 15.7792 4.244475 33.752514 2.098773
2008-06-09 11:15:37 51°10.631 2°30.926 15.7767 4.244267 33.752068 2.098773
2008-06-09 11:16:38 51°10.63 2°30.999 15.7726 4.243956 33.751399 2.098773
2008-06-09 11:17:37 51°10.615 2°31.069 15.7578 4.24323 33.752637 2.168421
2008-06-09 11:18:37 51°10.586 2°31.109 15.7496 4.241985 33.751362 2.481837
2008-06-09 11:19:37 51°10.558 2°31.13 15.7626 4.241777 33.750916 2.481837
2008-06-09 11:20:37 51°10.534 2°31.142 15.786 4.243748 33.753752 2.307717
2008-06-09 11:21:37 51°10.515 2°31.146 15.7899 4.24572 33.758685 2.238069
2008-06-09 11:22:38 51°10.486 2°31.173 15.8026 4.246965 33.762757 2.272893
2008-06-09 11:23:37 51°10.408 2°31.114 15.7404 4.247484 33.773663 3.004198
2008-06-09 11:24:37 51°10.44 2°30.987 15.7648 4.247795 33.786929 2.203245
2008-06-09 11:25:38 51°10.516 2°31.067 15.7783 4.246447 33.791744 1.9943
2008-06-09 11:26:37 51°10.626 2°31.238 15.7899 4.247173 33.776494 1.9943
2008-06-09 11:27:37 51°10.744 2°31.437 15.8065 4.247069 33.765077 2.029124
2008-06-09 11:28:37 51°10.875 2°31.646 15.8028 4.246446 33.746265 2.238069
2008-06-09 11:29:37 51°11.007 2°31.858 15.774 4.242918 33.73239 2.586309
2008-06-09 11:30:37 51°11.139 2°32.074 15.7484 4.239598 33.721051 2.690782
2008-06-09 11:31:37 51°11.267 2°32.294 15.7425 4.236693 33.711298 2.830078
2008-06-09 11:32:37 51°11.394 2°32.51 15.7975 4.234929 33.691419 2.655957
2008-06-09 11:33:37 51°11.526 2°32.72 15.7826 4.234721 33.650502 2.203245
2008-06-09 11:34:38 51°11.659 2°32.934 15.8405 4.228599 33.603102 2.203245
2008-06-09 11:35:37 51°11.788 2°33.14 15.8388 4.230466 33.573797 2.377365
2008-06-09 11:36:37 51°11.92 2°33.351 15.8246 4.229739 33.579161 2.93455
2008-06-09 11:37:37 51°12.051 2°33.562 15.8252 4.232541 33.608188 3.073846
2008-06-09 11:38:38 51°12.178 2°33.787 15.821 4.233164 33.615103 3.352439
2008-06-09 11:39:37 51°12.306 2°33.993 15.8456 4.232541 33.605406 3.004198
2008-06-09 11:40:37 51°12.44 2°34.194 15.9278 4.232644 33.572296 2.690782
2008-06-09 11:41:38 51°12.576 2°34.4 15.9752 4.231709 33.504488 2.238069
2008-06-09 11:42:37 51°12.707 2°34.6 16.0089 4.229322 33.446138 1.889828
2008-06-09 11:43:37 51°12.838 2°34.807 15.9833 4.227039 33.410144 1.785356
2008-06-09 11:44:37 51°12.95 2°35.037 15.9629 4.218116 33.354008 1.715708
2008-06-09 11:45:38 51°13.059 2°35.278 15.9702 4.207222 33.268062 1.47194
2008-06-09 11:46:37 51°13.162 2°35.513 15.9932 4.19861 33.177653 1.123699
2008-06-09 11:47:37 51°13.261 2°35.76 15.9932 4.190102 33.093715 0.984403
2008-06-09 11:48:37 51°13.357 2°36.006 16.0249 4.180867 33.006844 0.810283
2008-06-09 11:49:37 51°13.442 2°36.259 16.0574 4.169039 32.872835 0.566514
2008-06-09 11:50:38 51°13.503 2°36.531 16.0917 4.158145 32.749355 0.496866
2008-06-09 11:51:37 51°13.497 2°36.818 16.089 4.152543 32.681985 0.496866
2008-06-09 11:52:37 51°13.441 2°37.093 16.076 4.149431 32.656653 0.53169
2008-06-09 11:53:37 51°13.272 2°37.239 16.0639 4.145592 32.632979 0.601338
2008-06-09 11:54:37 51°13.063 2°37.273 16.041 4.141131 32.605165 0.636162
2008-06-09 11:55:37 51°12.845 2°37.255 16.0232 4.138849 32.605867 0.636162
2008-06-09 11:56:37 51°12.624 2°37.197 16.0057 4.139887 32.628401 0.496866
2008-06-09 11:57:37 51°12.403 2°37.148 16.0047 4.144556 32.676192 0.462042
2008-06-09 11:58:37 51°12.185 2°37.073 15.9897 4.152959 32.755546 0.566514
2008-06-09 11:59:38 51°11.961 2°37.023 15.9789 4.161155 32.841235 0.845107
2008-06-09 12:00:37 51°11.743 2°36.971 15.9814 4.166654 32.895785 0.984403
2008-06-09 12:01:37 51°11.521 2°36.903 16.0007 4.17319 32.949339 1.228171
2008-06-09 12:02:37 51°11.298 2°36.853 16.02 4.176302 32.958463 1.262995
2008-06-09 12:03:38 51°11.071 2°36.799 16.0097 4.182942 33.006121 1.332643
2008-06-09 12:04:37 51°10.853 2°36.75 15.9692 4.195289 33.129932 1.576412
2008-06-09 12:05:37 51°10.636 2°36.7 15.8757 4.209608 33.310419 1.715708
2008-06-09 12:06:38 51°10.418 2°36.675 15.8666 4.214175 33.406583 2.238069
2008-06-09 12:07:37 51°10.207 2°36.719 15.8995 4.215627 33.411855 2.238069
2008-06-09 12:08:38 51°10.035 2°36.885 16.0449 4.217702 33.400568 1.959476
2008-06-09 12:09:37 51°9.983 2°37.15 16.2521 4.219567 33.227284 0.810283
2008-06-09 12:10:38 51°10.017 2°37.433 16.2531 4.221848 33.157688 0.392394
2008-06-09 12:11:37 51°10.056 2°37.708 16.2279 4.215622 33.106456 0.427218
2008-06-09 12:12:38 51°10.082 2°37.999 16.2003 4.209397 33.076855 0.636162
2008-06-09 12:13:38 51°10.11 2°38.285 16.201 4.203898 33.040757 0.670986
2008-06-09 12:14:37 51°10.133 2°38.569 16.1913 4.198503 33.001501 0.775459
2008-06-09 12:15:38 51°10.172 2°38.857 16.1789 4.193315 32.959337 0.775459
2008-06-09 12:16:37 51°10.233 2°39.12 16.173 4.187816 32.919832 0.845107
2008-06-09 12:17:38 51°10.266 2°39.256 16.168 4.182733 32.88194 0.984403
2008-06-09 12:18:37 51°10.284 2°39.315 16.1861 4.179205 32.848286 0.845107
2008-06-09 12:19:38 51°10.289 2°39.385 16.1944 4.17796 32.823249 0.810283
2008-06-09 12:20:38 51°10.296 2°39.456 16.2132 4.176196 32.801067 0.775459
2008-06-09 12:21:37 51°10.308 2°39.524 16.2241 4.175054 32.774299 0.740634
2008-06-09 12:22:38 51°10.323 2°39.589 16.2361 4.173498 32.751955 0.70581
2008-06-09 12:23:37 51°10.342 2°39.649 16.2414 4.171942 32.731631 0.740634
2008-06-09 12:24:38 51°10.361 2°39.713 16.2506 4.170593 32.713134 0.740634
2008-06-09 12:25:37 51°10.372 2°39.78 16.2562 4.169348 32.698224 0.810283
2008-06-09 12:26:38 51°10.389 2°39.844 16.2728 4.168103 32.679982 0.810283
2008-06-09 12:27:37 51°10.409 2°39.905 16.2877 4.16748 32.659197 0.810283
2008-06-09 12:28:38 51°10.429 2°39.969 16.2996 4.16665 32.641945 0.810283
2008-06-09 12:29:37 51°10.447 2°40.032 16.3171 4.165612 32.620229 0.775459
2008-06-09 12:30:37 51°10.464 2°40.098 16.3212 4.164886 32.604574 0.775459
2008-06-09 12:31:38 51°10.481 2°40.166 16.3322 4.163848 32.590857 0.775459
2008-06-09 12:32:38 51°10.503 2°40.226 16.3482 4.16281 32.569846 0.775459
2008-06-09 12:33:38 51°10.528 2°40.285 16.3563 4.161462 32.548122 0.810283
2008-06-09 12:34:37 51°10.546 2°40.35 16.3674 4.160424 32.530454 0.810283
2008-06-09 12:35:38 51°10.561 2°40.421 16.3767 4.160424 32.524495 0.879931
2008-06-09 12:36:38 51°10.58 2°40.486 16.3801 4.159801 32.511124 0.845107
2008-06-09 12:37:37 51°10.601 2°40.549 16.3794 4.158971 32.500578 0.879931
2008-06-09 12:38:38 51°10.622 2°40.618 16.3713 4.158245 32.496887 0.914755
2008-06-09 12:39:38 51°10.643 2°40.685 16.3703 4.157623 32.497408 0.949579
2008-06-09 12:40:38 51°10.668 2°40.746 16.3888 4.156793 32.4862 0.949579
2008-06-09 12:41:37 51°10.697 2°40.801 16.4016 4.15617 32.466239 0.879931
2008-06-09 12:42:38 51°10.73 2°40.851 16.4062 4.155962 32.45651 0.879931
2008-06-09 12:43:37 51°10.766 2°40.898 16.4065 4.157207 32.464722 0.775459
2008-06-09 12:44:38 51°10.797 2°40.952 16.4024 4.159905 32.488896 0.740634
2008-06-09 12:45:37 51°10.827 2°41.007 16.4095 4.164054 32.525737 0.670986
2008-06-09 12:46:38 51°10.858 2°41.059 16.4425 4.167997 32.553497 0.601338
2008-06-09 12:47:38 51°10.887 2°41.108 16.5321 4.17225 32.54165 0.427218
2008-06-09 12:48:38 51°10.918 2°41.157 16.5723 4.176814 32.525976 0.35757
2008-06-09 12:49:38 51°10.95 2°41.207 16.5949 4.176087 32.490719 0.322746
2008-06-09 12:50:37 51°10.981 2°41.256 16.597 4.173078 32.452775 0.35757
2008-06-09 12:51:38 51°11.012 2°41.308 16.596 4.169136 32.415932 0.392394
2008-06-09 12:52:37 51°11.041 2°41.358 16.5947 4.165193 32.383028 0.392394
2008-06-09 12:53:38 51°11.069 2°41.414 16.5888 4.162081 32.357328 0.392394
2008-06-09 12:54:38 51°11.086 2°41.479 16.5774 4.15845 32.333666 0.462042
2008-06-09 12:55:38 51°11.095 2°41.534 16.5716 4.155545 32.314994 0.53169
2008-06-09 12:56:38 51°11.097 2°41.561 16.5681 4.15264 32.29305 0.566514
2008-06-09 12:57:37 51°11.094 2°41.573 16.565 4.150669 32.279208 0.636162
2008-06-09 12:58:38 51°11.089 2°41.578 16.5587 4.149113 32.268967 0.740634
2008-06-09 12:59:37 51°11.109 2°41.627 16.5561 4.147868 32.262078 0.879931
2008-06-09 13:00:38 51°11.206 2°41.757 16.5622 4.146312 32.247266 0.914755
2008-06-09 13:01:37 51°11.33 2°41.931 16.5314 4.143303 32.225068 1.019227
2008-06-09 13:02:38 51°11.451 2°42.166 16.4916 4.136457 32.195623 1.437116
2008-06-09 13:03:38 51°11.571 2°42.399 16.4739 4.12795 32.144547 1.611236
2008-06-09 13:04:38 51°11.695 2°42.624 16.472 4.119755 32.082461 1.680884
2008-06-09 13:05:38 51°11.821 2°42.847 16.4676 4.112079 32.019673 1.750532
2008-06-09 13:06:37 51°11.943 2°43.066 16.4674 4.105025 31.960351 1.889828
2008-06-09 13:07:38 51°12.039 2°43.325 16.468 4.097867 31.899493 1.959476
2008-06-09 13:08:38 51°12.131 2°43.585 16.474 4.093303 31.855991 1.959476
2008-06-09 13:09:38 51°12.213 2°43.851 16.4785 4.088739 31.815087 2.029124
2008-06-09 13:10:37 51°12.279 2°44.124 16.4864 4.084589 31.774573 2.098773
2008-06-09 13:11:38 51°12.333 2°44.415 16.4979 4.081685 31.741012 2.168421
2008-06-09 13:12:38 51°12.389 2°44.701 16.5084 4.078054 31.701178 2.272893
2008-06-09 13:13:37 51°12.448 2°44.979 16.514 4.071934 31.639801 2.551485
2008-06-09 13:14:38 51°12.515 2°45.26 16.5115 4.064881 31.577421 2.795254
2008-06-09 13:15:38 51°12.597 2°45.524 16.5045 4.058138 31.522226 2.864902
2008-06-09 13:16:38 51°12.701 2°45.772 16.5013 4.0515 31.467935 2.795254
2008-06-09 13:17:38 51°12.813 2°46.009 16.4969 4.045588 31.421844 2.76043
2008-06-09 13:18:38 51°12.932 2°46.237 16.4882 4.040298 31.378595 2.481837
2008-06-09 13:19:38 51°13.051 2°46.464 16.4825 4.035424 31.340845 2.238069
2008-06-09 13:20:38 51°13.173 2°46.687 16.4862 4.030653 31.301453 2.238069
2008-06-09 13:21:38 51°13.294 2°46.911 16.504 4.025674 31.253302 2.412189
2008-06-09 13:22:37 51°13.414 2°47.133 16.5277 4.022251 31.209781 2.795254
2008-06-09 13:23:38 51°13.538 2°47.36 16.5561 4.020488 31.173705 3.143494
2008-06-09 13:24:38 51°13.625 2°47.531 16.5753 4.019761 31.149156 3.352439
2008-06-09 13:25:38 51°13.647 2°47.617 16.5796 4.020383 31.143825 3.387263
2008-06-09 13:26:38 51°13.664 2°47.673 16.6024 4.021006 31.142273 3.073846
2008-06-09 13:27:38 51°13.694 2°47.721 16.616 4.022872 31.141397 2.795254
2008-06-09 13:28:38 51°13.728 2°47.77 16.6232 4.023806 31.140017 2.655957
2008-06-09 13:29:37 51°13.761 2°47.838 16.6179 4.024739 31.143667 2.516661
2008-06-09 13:30:38 51°13.793 2°47.912 16.615 4.024946 31.151743 2.551485
2008-06-09 13:31:38 51°13.828 2°47.981 16.6111 4.027228 31.169536 2.690782
2008-06-09 13:32:38 51°13.86 2°48.056 16.5992 4.026502 31.168936 2.481837
2008-06-09 13:33:38 51°13.89 2°48.137 16.5596 4.025569 31.179141 2.725606
2008-06-09 13:34:38 51°13.914 2°48.218 16.5509 4.023703 31.181929 2.899726
2008-06-09 13:35:38 51°13.936 2°48.281 16.5635 4.025051 31.192312 2.586309
2008-06-09 13:36:38 51°13.957 2°48.34 16.5583 4.025777 31.197321 2.516661
2008-06-09 13:37:38 51°13.977 2°48.397 16.5798 4.027125 31.207072 2.307717
2008-06-09 13:38:38 51°13.997 2°48.453 16.6236 4.033452 31.253503 2.272893
2008-06-09 13:39:38 51°14.016 2°48.507 16.5994 4.041127 31.30461 1.959476
2008-06-09 13:40:38 51°14.034 2°48.56 16.6067 4.042372 31.329279 1.9943
2008-06-09 13:41:38 51°14.054 2°48.61 16.5983 4.046416 31.342057 1.611236
2008-06-09 13:42:37 51°14.079 2°48.669 16.5794 4.04901 31.37585 1.541588
2008-06-09 13:43:38 51°14.109 2°48.738 16.4956 4.048284 31.397491 1.611236
2008-06-09 13:44:38 51°14.14 2°48.808 16.4557 4.042788 31.403962 1.889828
2008-06-09 13:45:38 51°14.174 2°48.876 16.5388 4.046522 31.43757 1.785356
2008-06-09 13:46:38 51°14.208 2°48.94 16.581 4.057204 31.465712 1.367467
2008-06-09 13:47:38 51°14.242 2°49.003 16.5342 4.066851 31.560616 1.750532
2008-06-09 13:48:38 51°14.272 2°49.071 16.5332 4.069444 31.586888 1.785356
2008-06-09 13:49:37 51°14.301 2°49.142 16.5296 4.069237 31.590844 1.750532
2008-06-09 13:50:38 51°14.334 2°49.21 16.5316 4.069133 31.586751 1.64606
2008-06-09 13:51:38 51°14.368 2°49.274 16.5137 4.069029 31.591606 1.785356
2008-06-09 13:52:38 51°14.4 2°49.342 16.5179 4.067474 31.589005 1.680884
2008-06-09 13:53:38 51°14.431 2°49.413 16.5043 4.067162 31.58695 1.64606
2008-06-09 13:54:38 51°14.459 2°49.49 16.5153 4.067681 31.589523 1.576412
2008-06-09 13:55:38 51°14.484 2°49.568 16.5519 4.068303 31.594911 1.576412
2008-06-09 13:56:38 51°14.507 2°49.649 16.5711 4.071311 31.597932 1.506764
2008-06-09 13:57:38 51°14.526 2°49.732 16.5744 4.072763 31.595801 1.506764
2008-06-09 13:58:38 51°14.535 2°49.818 16.5669 4.072037 31.585051 1.541588
2008-06-09 13:59:38 51°14.525 2°49.886 16.6076 4.06934 31.566194 1.611236
2008-06-09 14:00:38 51°14.498 2°49.937 16.6225 4.067991 31.518855 1.715708
2008-06-09 14:01:38 51°14.462 2°49.971 16.6052 4.066124 31.486836 1.715708
2008-06-09 14:02:38 51°14.421 2°49.994 16.5826 4.063842 31.49637 1.64606
2008-06-09 14:03:38 51°14.361 2°49.962 16.6542 4.061249 31.468245 1.959476
2008-06-09 14:04:38 51°14.314 2°49.853 16.6537 4.0627 31.433824 1.924652
2008-06-09 14:05:38 51°14.286 2°49.771 16.6426 4.063841 31.453176 1.855004
2008-06-09 14:06:38 51°14.265 2°49.708 16.632 4.064982 31.470637 1.785356
2008-06-09 14:07:38 51°14.249 2°49.657 16.6265 4.06602 31.48086 1.855004
2008-06-09 14:08:38 51°14.235 2°49.614 16.6118 4.066331 31.496253 1.924652
2008-06-09 14:09:38 51°14.223 2°49.578 16.5967 4.066228 31.501715 1.9943
2008-06-09 14:10:38 51°14.21 2°49.548 16.5887 4.065916 31.507296 2.063949
2008-06-09 14:11:38 51°14.198 2°49.521 16.5857 4.06602 31.506283 2.098773
2008-06-09 14:12:38 51°14.187 2°49.497 16.5888 4.065709 31.515686 2.063949
2008-06-09 14:13:38 51°14.179 2°49.468 16.5817 4.066124 31.517362 2.133597
2008-06-09 14:14:38 51°14.225 2°49.452 16.5617 4.066228 31.522079 2.307717
2008-06-09 14:15:38 51°14.275 2°49.616 16.5582 4.065813 31.536332 2.098773
2008-06-09 14:16:38 51°14.339 2°49.892 16.5794 4.064465 31.519574 2.307717
2008-06-09 14:17:37 51°14.387 2°50.177 16.686 4.06156 31.442364 2.168421
2008-06-09 14:18:38 51°14.433 2°50.473 16.6711 4.056788 31.361973 2.133597
2008-06-09 14:19:37 51°14.477 2°50.76 16.6465 4.050979 31.323279 2.238069
2008-06-09 14:20:38 51°14.517 2°51.06 16.6721 4.0432 31.275148 2.238069
2008-06-09 14:21:37 51°14.534 2°51.358 16.7207 4.042163 31.232204 2.377365
2008-06-09 14:22:37 51°14.544 2°51.665 16.9172 4.045896 31.208441 2.272893
2008-06-09 14:23:38 51°14.559 2°51.973 16.9348 4.039463 31.039692 2.690782
2008-06-09 14:24:37 51°14.576 2°52.27 16.9383 4.022453 30.86877 3.039022
2008-06-09 14:25:38 51°14.595 2°52.58 16.8782 4.003266 30.728728 3.839975
2008-06-09 14:26:37 51°14.617 2°52.88 16.7727 3.988333 30.655032 4.39716
2008-06-09 14:27:38 51°14.637 2°53.193 16.6882 3.974748 30.617935 4.954345
2008-06-09 14:28:37 51°14.659 2°53.497 16.5818 3.962616 30.563029 5.33741
2008-06-09 14:29:38 51°14.673 2°53.814 16.5105 3.945092 30.497343 6.173187
2008-06-09 14:30:37 51°14.626 2°54.112 16.6841 3.932026 30.402116 6.242835
2008-06-09 14:31:38 51°14.564 2°54.416 16.5923 3.932647 30.312507 6.277659
2008-06-09 14:32:38 51°14.478 2°54.701 16.7917 3.922174 30.261678 6.765196
2008-06-09 14:33:38 51°14.386 2°54.981 16.5591 3.912114 30.056529 7.252733
2008-06-09 14:34:38 51°14.265 2°55.233 16.78 3.887231 29.998713 8.750167
2008-06-09 14:35:38 51°14.145 2°55.392 16.7617 3.734732 28.569961 7.949214
2008-06-09 14:36:38 51°14.054 2°55.459 16.7851 3.57016 27.141004 7.705445
2008-06-09 14:37:38 51°13.962 2°55.526 16.847 3.36815 25.353265 5.650826
2008-06-09 14:38:38 51°13.875 2°55.59 17.1028 0.715891 4.7153 -1.627401
2008-06-09 14:39:38 51°13.805 2°55.645 17.1364 0.706413 4.648531 -1.592577
2008-06-09 14:40:38 51°13.75 2°55.718 17.162 0.697863 4.588368 -1.592577
2008-06-09 14:41:38 51°13.694 2°55.822 17.2259 0.730005 4.815389 -1.627401
2008-06-09 14:42:38 51°13.651 2°55.929 17.3025 0.698996 4.596169 -1.592577
2008-06-09 14:43:38 51°13.629 2°56.017 17.3875 0.724751 4.777493 -1.592577
2008-06-09 14:44:38 51°13.624 2°56.043 17.4969 0.815522 5.421568 -1.627401